Jefferson Township, New Jersey
Current Conditions -  °F | °C
As of 2:53 PM on Thursday 29 Jan 2015 (Local Time) from KFWN Reporting Station
Overcast Overcast  
Wind Chill: 26°   Ceiling: 9000
Heat Index: 26°   Visibility: 10mi
Dew Point:   Wind: 3mph
Humidity: 39%   Direction: 60°ENE
Pressure: 30.12"   Gusts: NA
Location:  41.0321°N, 74.5162°W
Report Text: KFWN 291953Z AUTO 06003KT 10SM OVC090 M03/M16 A3012 RMK AO2 UPE11 SLP208 P0000 T10331156
Loading
Personal Weather Stations






























Interactive Weather Map New forecast layout! Learn more

10-Day Weather Forecast

Advertisements
Track Severe Weather on mobile